Time;durP1;ratioP1;P1;durP2;ratioP2;P2;SDS_P1;SDS_P2;PMS_P1;PMS_P2;Temp;Humidity;BMP_temperature;BMP_pressure;BME280_temperature;BME280_humidity;BME280_pressure;Samples;Min_cycle;Max_cycle;Signal;HPM_P1;HPM_P2
2022/08/01 00:01:54;;;;;;;5.30;3.60;;;24.60;60.80;;;;;;5107427;28;20020;-79
2022/08/01 00:04:19;;;;;;;4.40;3.22;;;24.60;61.20;;;;;;5091129;28;20093;-78
2022/08/01 00:06:45;;;;;;;5.75;3.40;;;24.70;61.00;;;;;;5093572;28;20032;-77
2022/08/01 00:09:11;;;;;;;4.57;3.30;;;24.60;60.60;;;;;;5097037;28;20016;-83
2022/08/01 00:11:36;;;;;;;6.55;3.28;;;24.40;60.30;;;;;;5107000;28;20072;-84
2022/08/01 00:14:03;;;;;;;7.55;3.33;;;24.40;60.00;;;;;;5077027;28;20059;-83
2022/08/01 00:16:29;;;;;;;6.63;3.40;;;24.50;60.30;;;;;;5095097;28;20059;-76
2022/08/01 00:18:55;;;;;;;5.97;3.20;;;24.40;59.60;;;;;;5099718;28;20068;-78
2022/08/01 00:21:21;;;;;;;6.15;3.45;;;24.40;59.80;;;;;;5097992;28;20027;-85
2022/08/01 00:23:47;;;;;;;5.43;3.20;;;24.50;59.50;;;;;;5079325;28;20036;-82
2022/08/01 00:26:14;;;;;;;5.35;3.20;;;24.40;60.10;;;;;;5097364;28;20032;-81
2022/08/01 00:28:40;;;;;;;7.78;3.42;;;24.50;60.30;;;;;;5100539;28;20020;-82
2022/08/01 00:31:06;;;;;;;4.97;3.30;;;24.40;60.40;;;;;;5113144;28;20088;-82
2022/08/01 00:33:32;;;;;;;4.63;3.10;;;24.40;60.20;;;;;;5107538;28;20455;-77
2022/08/01 00:35:58;;;;;;;6.55;3.40;;;24.40;60.40;;;;;;5103944;28;20095;-83
2022/08/01 00:38:24;;;;;;;5.00;3.08;;;24.40;60.40;;;;;;5095546;28;20031;-77
2022/08/01 00:40:49;;;;;;;5.07;3.33;;;24.30;60.30;;;;;;5101362;28;20034;-82
2022/08/01 00:43:15;;;;;;;5.30;3.08;;;24.30;60.00;;;;;;5100286;28;20048;-83
2022/08/01 00:45:41;;;;;;;4.30;3.20;;;24.40;60.00;;;;;;5097454;28;20035;-78
2022/08/01 00:48:07;;;;;;;4.65;3.50;;;24.30;60.00;;;;;;5098898;28;20039;-81
2022/08/01 00:50:34;;;;;;;4.97;3.40;;;24.30;60.20;;;;;;5115013;28;20027;-81
2022/08/01 00:53:00;;;;;;;5.45;3.70;;;24.20;60.00;;;;;;5081614;28;20051;-79
2022/08/01 00:55:30;;;;;;;4.28;3.20;;;24.30;60.60;;;;;;5096861;28;20031;-77
2022/08/01 00:57:57;;;;;;;4.75;3.38;;;24.30;60.50;;;;;;5096252;28;20024;-79
2022/08/01 01:00:23;;;;;;;4.40;3.30;;;24.40;60.30;;;;;;5107928;28;20423;-80
2022/08/01 01:02:49;;;;;;;5.47;3.58;;;24.50;60.10;;;;;;5115607;28;20030;-82
2022/08/01 01:05:15;;;;;;;5.40;3.33;;;24.60;60.40;;;;;;5094551;28;20040;-83
2022/08/01 01:07:44;;;;;;;4.45;3.50;;;24.50;60.10;;;;;;5105501;28;20351;-83
2022/08/01 01:10:55;;;;;;;6.40;3.20;;;24.60;60.20;;;;;;5101632;28;20498;-79
2022/08/01 01:13:44;;;;;;;4.70;3.55;;;24.60;60.00;;;;;;5034179;28;20436;-77
2022/08/01 01:16:14;;;;;;;5.32;3.60;;;24.40;60.70;;;;;;5018013;28;20496;-85
2022/08/01 01:18:46;;;;;;;8.25;3.60;;;24.20;60.60;;;;;;5050121;28;20534;-79
2022/08/01 01:21:18;;;;;;;5.90;3.45;;;24.20;61.80;;;;;;5049207;28;20041;-79
2022/08/01 01:24:08;;;;;;;5.70;3.47;;;24.10;62.00;;;;;;5051829;28;20029;-76
2022/08/01 01:27:10;;;;;;;5.83;3.30;;;24.10;61.50;;;;;;5053338;28;20044;-76
2022/08/01 01:29:48;;;;;;;5.60;3.60;;;23.90;62.10;;;;;;5035724;28;20029;-79
2022/08/01 01:32:19;;;;;;;6.18;3.65;;;23.90;61.90;;;;;;5036678;28;20501;-76
2022/08/01 01:34:49;;;;;;;7.60;3.60;;;24.00;61.80;;;;;;5021720;28;20132;-79
2022/08/01 01:37:18;;;;;;;4.90;3.50;;;23.80;61.70;;;;;;5033579;28;20095;-85
2022/08/01 01:39:46;;;;;;;4.70;3.33;;;23.90;62.00;;;;;;5048369;28;20439;-77
2022/08/01 01:42:13;;;;;;;6.03;3.50;;;23.90;61.90;;;;;;5052252;28;20029;-86
2022/08/01 01:44:40;;;;;;;5.90;3.55;;;24.00;61.30;;;;;;5052290;28;20187;-76
2022/08/01 01:47:06;;;;;;;8.52;3.80;;;24.20;60.90;;;;;;5061666;28;20044;-77
2022/08/01 01:49:33;;;;;;;4.95;3.50;;;24.40;60.60;;;;;;5082241;28;20039;-79
2022/08/01 01:52:01;;;;;;;5.32;3.40;;;24.50;60.60;;;;;;5086100;28;20134;-79
2022/08/01 01:54:39;;;;;;;4.70;3.55;;;24.50;60.30;;;;;;5056858;28;20059;-80
2022/08/01 01:57:06;;;;;;;5.20;3.70;;;24.50;59.90;;;;;;5086415;28;20020;-80
2022/08/01 01:59:36;;;;;;;6.97;3.80;;;24.30;60.50;;;;;;5080326;28;20594;-82
2022/08/01 02:02:05;;;;;;;4.60;3.75;;;24.40;60.40;;;;;;5056556;28;20051;-79
2022/08/01 02:04:32;;;;;;;4.45;3.33;;;24.40;60.20;;;;;;5088773;28;20035;-77
2022/08/01 02:07:00;;;;;;;5.70;3.70;;;24.60;59.70;;;;;;5095423;28;20111;-84
2022/08/01 02:09:27;;;;;;;5.10;3.95;;;24.40;60.00;;;;;;5071187;28;20421;-81
2022/08/01 02:11:53;;;;;;;4.68;3.75;;;24.30;60.60;;;;;;5056865;28;20024;-80
2022/08/01 02:14:21;;;;;;;7.18;3.70;;;24.20;60.70;;;;;;5056736;28;20449;-77
2022/08/01 02:16:49;;;;;;;6.43;3.60;;;24.20;61.20;;;;;;5075768;28;20020;-83
2022/08/01 02:19:19;;;;;;;6.50;4.25;;;24.00;60.70;;;;;;5058009;28;21842;-79
2022/08/01 02:21:51;;;;;;;4.82;3.67;;;23.90;61.30;;;;;;5079234;28;20024;-80
2022/08/01 02:24:36;;;;;;;5.18;3.78;;;23.90;61.50;;;;;;5074804;28;20036;-79
2022/08/01 02:27:07;;;;;;;5.95;3.88;;;23.90;61.10;;;;;;5074525;28;20479;-81
2022/08/01 02:29:41;;;;;;;5.43;3.67;;;23.80;61.40;;;;;;5089282;28;20047;-77
2022/08/01 02:32:10;;;;;;;5.18;3.60;;;23.70;61.90;;;;;;5060556;28;20024;-89
2022/08/01 02:34:36;;;;;;;4.75;3.60;;;23.60;62.20;;;;;;5076795;28;20016;-79
2022/08/01 02:37:04;;;;;;;5.50;3.95;;;23.50;62.40;;;;;;5093807;28;20118;-78
2022/08/01 02:39:31;;;;;;;5.28;4.20;;;23.40;62.30;;;;;;5093624;28;20028;-81
2022/08/01 02:42:03;;;;;;;5.18;3.78;;;23.50;62.10;;;;;;5075889;28;20016;-79
2022/08/01 02:44:37;;;;;;;4.80;3.50;;;23.20;62.70;;;;;;5104778;28;20058;-83
2022/08/01 02:47:04;;;;;;;7.72;4.32;;;23.20;63.40;;;;;;5113880;28;20034;-78
2022/08/01 02:49:35;;;;;;;6.97;3.72;;;23.20;62.80;;;;;;5094862;28;20098;-79
2022/08/01 02:52:03;;;;;;;;;;;22.90;63.50;;;;;;5102085;28;20032;-76
2022/08/01 02:54:30;;;;;;;5.15;4.00;;;22.90;64.40;;;;;;5109561;28;19918;-79
2022/08/01 02:56:57;;;;;;;5.70;4.25;;;23.10;63.50;;;;;;5109794;28;20038;-79
2022/08/01 02:59:26;;;;;;;5.68;4.38;;;23.30;62.80;;;;;;5094165;28;20024;-79
2022/08/01 03:01:55;;;;;;;6.47;4.47;;;23.40;62.80;;;;;;5104730;28;20020;-81
2022/08/01 03:04:25;;;;;;;6.15;4.60;;;23.20;63.30;;;;;;5114664;28;20125;-81
2022/08/01 03:06:52;;;;;;;5.22;4.32;;;23.10;64.10;;;;;;5078715;28;20386;-85
2022/08/01 03:09:19;;;;;;;9.05;4.22;;;22.90;64.20;;;;;;5098159;28;20055;-81
2022/08/01 03:11:47;;;;;;;6.65;4.75;;;22.90;63.80;;;;;;5076183;28;20024;-83
2022/08/01 03:14:15;;;;;;;6.22;4.22;;;23.00;63.80;;;;;;5077795;28;20070;-78
2022/08/01 03:16:44;;;;;;;5.47;4.20;;;23.30;63.10;;;;;;5094446;28;20451;-81
2022/08/01 03:19:12;;;;;;;6.50;4.28;;;23.40;62.60;;;;;;5075750;28;20046;-80
2022/08/01 03:21:40;;;;;;;8.88;4.50;;;23.40;63.10;;;;;;5075705;28;20043;-75
2022/08/01 03:24:08;;;;;;;7.47;4.68;;;23.30;63.50;;;;;;5096420;28;20038;-77
2022/08/01 03:26:38;;;;;;;6.43;4.80;;;23.30;63.60;;;;;;5094003;28;20028;-76
2022/08/01 03:29:12;;;;;;;6.53;4.60;;;23.60;62.50;;;;;;5093785;28;20027;-81
2022/08/01 03:31:42;;;;;;;7.68;4.47;;;23.90;62.20;;;;;;5082900;28;20069;-84
2022/08/01 03:34:08;;;;;;;6.68;4.32;;;23.90;62.50;;;;;;5096556;28;20023;-80
2022/08/01 03:36:41;;;;;;;5.95;4.32;;;23.90;62.50;;;;;;5114226;28;20030;-76
2022/08/01 03:39:11;;;;;;;5.97;4.07;;;23.80;62.50;;;;;;5114417;28;20019;-82
2022/08/01 03:41:41;;;;;;;6.90;4.70;;;23.80;63.20;;;;;;5105254;28;20023;-81
2022/08/01 03:44:20;;;;;;;6.22;4.32;;;23.60;63.90;;;;;;5096388;28;20148;-76
2022/08/01 03:46:49;;;;;;;8.73;4.80;;;23.40;64.00;;;;;;5114202;28;20023;-77
2022/08/01 03:49:19;;;;;;;11.30;4.80;;;23.50;63.30;;;;;;5113183;28;20027;-83
2022/08/01 03:51:49;;;;;;;6.18;4.55;;;23.60;63.40;;;;;;5109752;28;20019;-77
2022/08/01 03:54:17;;;;;;;6.72;4.50;;;23.60;63.60;;;;;;5087139;28;20032;-81
2022/08/01 03:56:45;;;;;;;5.63;4.30;;;23.60;62.70;;;;;;5110033;28;20477;-80
2022/08/01 03:59:11;;;;;;;6.60;4.60;;;23.90;62.40;;;;;;5104644;28;20035;-77
2022/08/01 04:01:38;;;;;;;6.18;4.22;;;23.80;62.60;;;;;;5117129;28;20038;-76
2022/08/01 04:04:05;;;;;;;7.22;4.93;;;24.00;62.50;;;;;;5113676;28;20431;-75
2022/08/01 04:06:31;;;;;;;6.95;4.88;;;24.20;62.10;;;;;;5113933;28;20450;-79
2022/08/01 04:08:57;;;;;;;7.53;5.07;;;24.40;61.50;;;;;;5114546;28;20076;-81
2022/08/01 04:11:27;;;;;;;6.60;4.75;;;24.40;61.80;;;;;;5113387;28;20106;-79
2022/08/01 04:13:54;;;;;;;6.78;4.70;;;24.40;61.80;;;;;;5095446;28;20016;-77
2022/08/01 04:16:21;;;;;;;5.72;4.63;;;24.40;62.00;;;;;;5094994;28;20035;-77
2022/08/01 04:18:47;;;;;;;6.82;4.70;;;24.60;61.60;;;;;;5113127;28;20420;-88
2022/08/01 04:21:13;;;;;;;7.40;4.90;;;24.50;61.90;;;;;;5094394;28;20035;-83
2022/08/01 04:23:43;;;;;;;5.80;4.43;;;24.70;61.30;;;;;;5113685;28;20054;-83
2022/08/01 04:26:10;;;;;;;6.95;4.45;;;24.90;61.00;;;;;;5093630;28;20027;-76
2022/08/01 04:28:38;;;;;;;6.15;4.68;;;24.70;60.90;;;;;;5093387;28;20024;-82
2022/08/01 04:31:09;;;;;;;8.82;5.07;;;24.60;61.60;;;;;;5105154;28;20456;-76
2022/08/01 04:33:38;;;;;;;5.95;4.88;;;24.70;61.80;;;;;;5100432;28;20019;-77
2022/08/01 04:36:07;;;;;;;6.95;4.85;;;24.40;62.40;;;;;;5113395;28;20031;-81
2022/08/01 04:38:36;;;;;;;6.57;4.35;;;24.30;62.60;;;;;;5113078;28;20055;-82
2022/08/01 04:41:03;;;;;;;7.53;4.88;;;24.40;62.60;;;;;;5112964;28;20030;-83
2022/08/01 04:43:28;;;;;;;6.10;4.40;;;24.80;61.90;;;;;;5112961;28;20168;-78
2022/08/01 04:45:56;;;;;;;6.15;4.90;;;25.10;61.50;;;;;;5113238;28;20027;-77
2022/08/01 04:48:24;;;;;;;9.35;5.00;;;25.20;60.70;;;;;;5113780;28;20478;-78
2022/08/01 04:50:50;;;;;;;6.88;4.72;;;25.30;60.30;;;;;;5113058;28;20055;-76
2022/08/01 04:53:18;;;;;;;5.68;4.63;;;25.50;60.00;;;;;;5113232;28;20054;-79
2022/08/01 04:55:45;;;;;;;6.88;4.38;;;25.70;59.90;;;;;;5111981;28;20126;-80
2022/08/01 04:58:12;;;;;;;7.82;4.60;;;25.60;60.20;;;;;;5093348;28;20051;-78
2022/08/01 05:00:38;;;;;;;7.07;4.40;;;25.50;60.80;;;;;;5111589;28;20034;-75
2022/08/01 05:03:04;;;;;;;7.63;4.10;;;25.60;60.60;;;;;;5113247;28;20024;-77
2022/08/01 05:05:30;;;;;;;7.72;4.65;;;25.70;59.90;;;;;;5097466;28;20061;-76
2022/08/01 05:07:56;;;;;;;6.10;4.20;;;25.70;60.20;;;;;;5116250;28;20026;-80
2022/08/01 05:10:22;;;;;;;5.45;4.05;;;25.70;60.10;;;;;;5098051;28;20031;-77
2022/08/01 05:12:48;;;;;;;5.55;3.80;;;25.80;60.00;;;;;;5098539;28;20026;-79
2022/08/01 05:15:13;;;;;;;6.25;3.85;;;26.00;59.40;;;;;;5116432;28;20023;-78
2022/08/01 05:17:39;;;;;;;6.35;4.00;;;26.00;58.90;;;;;;5116564;28;20019;-76
2022/08/01 05:20:08;;;;;;;8.02;4.53;;;26.00;59.20;;;;;;5098200;28;20030;-78
2022/08/01 05:22:33;;;;;;;5.03;3.67;;;26.10;58.70;;;;;;5116306;28;20023;-77
2022/08/01 05:24:59;;;;;;;5.80;3.88;;;26.00;58.80;;;;;;5116449;28;20035;-78
2022/08/01 05:27:25;;;;;;;5.68;3.30;;;26.10;58.60;;;;;;5097505;28;20173;-76
2022/08/01 05:29:51;;;;;;;6.60;3.75;;;26.00;58.80;;;;;;5117766;28;20015;-78
2022/08/01 05:32:17;;;;;;;7.72;3.80;;;25.90;59.10;;;;;;5116489;28;20019;-77
2022/08/01 05:34:43;;;;;;;5.22;3.90;;;25.80;59.40;;;;;;5116639;28;20371;-78
2022/08/01 05:37:09;;;;;;;6.65;3.90;;;25.90;59.30;;;;;;5116575;28;20030;-85
2022/08/01 05:39:35;;;;;;;6.07;3.97;;;26.00;59.20;;;;;;5116082;28;20065;-80
2022/08/01 05:42:00;;;;;;;6.57;4.22;;;25.90;59.20;;;;;;5098014;28;20019;-79
2022/08/01 05:44:26;;;;;;;5.05;3.58;;;25.70;58.70;;;;;;5097405;28;20085;-83
2022/08/01 05:46:52;;;;;;;6.00;3.70;;;25.60;59.70;;;;;;5097706;28;20028;-76
2022/08/01 05:49:18;;;;;;;4.97;3.42;;;25.50;60.30;;;;;;5115760;28;20030;-78
2022/08/01 05:51:43;;;;;;;4.75;3.40;;;25.60;60.10;;;;;;5115205;28;20022;-77
2022/08/01 05:54:09;;;;;;;6.20;3.50;;;25.50;59.50;;;;;;5115161;28;20035;-77
2022/08/01 05:56:35;;;;;;;4.10;2.92;;;25.70;59.70;;;;;;4762196;28;10000495;-78
2022/08/01 05:59:00;;;;;;;4.72;3.35;;;25.60;58.90;;;;;;5095739;28;20031;-77
2022/08/01 06:01:26;;;;;;;4.85;3.42;;;25.70;59.70;;;;;;5114299;28;20458;-78
2022/08/01 06:03:54;;;;;;;4.60;3.45;;;25.80;59.80;;;;;;5112458;28;20062;-77
2022/08/01 06:06:20;;;;;;;5.80;3.65;;;26.20;59.10;;;;;;5094569;28;20035;-79
2022/08/01 06:08:46;;;;;;;5.75;4.00;;;26.30;59.20;;;;;;5113172;28;20028;-79
2022/08/01 06:11:12;;;;;;;6.43;3.47;;;26.50;58.80;;;;;;5093686;28;20554;-78
2022/08/01 06:13:38;;;;;;;4.68;3.58;;;26.70;59.40;;;;;;5095096;28;20031;-80
2022/08/01 06:16:04;;;;;;;4.65;3.30;;;26.90;58.70;;;;;;5094284;28;20027;-78
2022/08/01 06:18:31;;;;;;;6.18;3.67;;;27.10;58.70;;;;;;5112920;28;20031;-80
2022/08/01 06:20:56;;;;;;;4.85;3.20;;;27.30;57.80;;;;;;5112727;28;20068;-78
2022/08/01 06:23:22;;;;;;;6.30;3.50;;;27.10;57.10;;;;;;5094699;28;20090;-76
2022/08/01 06:25:51;;;;;;;7.18;3.67;;;26.80;57.90;;;;;;5094295;28;20066;-81
2022/08/01 06:28:17;;;;;;;7.97;4.07;;;26.80;57.80;;;;;;5093934;28;20013;-76
2022/08/01 06:30:43;;;;;;;6.15;3.60;;;27.00;58.30;;;;;;5095346;28;20045;-81
2022/08/01 06:33:09;;;;;;;5.55;3.40;;;27.30;58.00;;;;;;5115328;28;20024;-80
2022/08/01 06:35:34;;;;;;;6.93;3.65;;;27.60;57.90;;;;;;5097159;28;20024;-78
2022/08/01 06:38:01;;;;;;;4.72;3.47;;;27.70;57.80;;;;;;5096740;28;20035;-80
2022/08/01 06:40:27;;;;;;;5.80;3.40;;;27.70;57.60;;;;;;5115545;28;20023;-82
2022/08/01 06:42:52;;;;;;;4.70;3.42;;;27.80;56.80;;;;;;5114845;28;20371;-78
2022/08/01 06:45:18;;;;;;;5.28;3.60;;;27.90;57.60;;;;;;5115058;28;20034;-78
2022/08/01 06:47:44;;;;;;;4.30;3.28;;;28.00;58.10;;;;;;5114716;28;20072;-79
2022/08/01 06:50:11;;;;;;;5.35;3.50;;;28.10;57.20;;;;;;5114915;28;20059;-77
2022/08/01 06:52:37;;;;;;;6.55;3.75;;;28.00;57.20;;;;;;5115175;28;20039;-80
2022/08/01 06:55:05;;;;;;;5.88;3.53;;;27.90;57.20;;;;;;5095732;28;20027;-79
2022/08/01 06:57:31;;;;;;;6.40;3.72;;;27.80;58.00;;;;;;5114709;28;20023;-81
2022/08/01 06:59:57;;;;;;;5.97;3.67;;;27.90;57.70;;;;;;5115346;28;20035;-85
2022/08/01 07:02:23;;;;;;;6.97;3.45;;;28.00;57.40;;;;;;5115242;28;20024;-80
2022/08/01 07:04:48;;;;;;;4.60;3.50;;;28.10;57.00;;;;;;5113368;28;20149;-75
2022/08/01 07:07:14;;;;;;;5.32;3.40;;;28.30;57.00;;;;;;5113968;28;20453;-78
2022/08/01 07:09:43;;;;;;;5.07;3.42;;;28.30;56.30;;;;;;5114763;28;20099;-83
2022/08/01 07:12:09;;;;;;;5.22;3.67;;;28.50;56.20;;;;;;5114526;28;20378;-82
2022/08/01 07:14:34;;;;;;;5.13;3.45;;;28.70;57.10;;;;;;5096598;28;20465;-80
2022/08/01 07:17:00;;;;;;;5.63;3.40;;;28.90;55.70;;;;;;5113942;28;20023;-77
2022/08/01 07:19:27;;;;;;;6.53;3.20;;;29.20;54.70;;;;;;5114137;28;20043;-78
2022/08/01 07:21:52;;;;;;;4.10;3.00;;;29.20;54.60;;;;;;5114061;28;20031;-81
2022/08/01 07:24:18;;;;;;;5.50;3.10;;;29.50;54.20;;;;;;5113946;28;20105;-79
2022/08/01 07:26:48;;;;;;;7.10;2.88;;;29.70;53.70;;;;;;5113342;28;20030;-79
2022/08/01 07:29:14;;;;;;;4.57;3.05;;;29.90;53.50;;;;;;5113890;28;20381;-77
2022/08/01 07:31:40;;;;;;;4.95;3.10;;;29.90;54.50;;;;;;5096148;28;20035;-80
2022/08/01 07:34:05;;;;;;;4.15;3.00;;;30.00;54.20;;;;;;5095650;28;20019;-82
2022/08/01 07:36:31;;;;;;;5.43;3.20;;;30.10;54.40;;;;;;5114385;28;20116;-79
2022/08/01 07:38:57;;;;;;;4.10;2.95;;;30.00;54.60;;;;;;5095714;28;20026;-78
2022/08/01 07:41:23;;;;;;;5.50;2.95;;;30.30;55.20;;;;;;5114179;28;20033;-81
2022/08/01 07:43:48;;;;;;;6.22;3.38;;;30.60;54.40;;;;;;5095335;28;20039;-78
2022/08/01 07:46:16;;;;;;;4.68;3.03;;;30.60;54.20;;;;;;5113850;28;20059;-81
2022/08/01 07:48:42;;;;;;;4.45;3.10;;;30.60;53.70;;;;;;5114184;28;20098;-76
2022/08/01 07:51:11;;;;;;;5.57;3.10;;;30.50;54.00;;;;;;5113527;28;20114;-80
2022/08/01 07:53:37;;;;;;;5.70;3.20;;;30.30;54.10;;;;;;5113898;28;20106;-79
2022/08/01 07:56:05;;;;;;;3.90;3.10;;;30.40;54.30;;;;;;5113902;28;20172;-78
2022/08/01 07:58:32;;;;;;;5.55;3.28;;;30.30;54.50;;;;;;5113947;28;20019;-79
2022/08/01 08:00:57;;;;;;;4.45;3.30;;;30.30;55.00;;;;;;5113803;28;20130;-77
2022/08/01 08:03:23;;;;;;;4.88;3.65;;;30.20;54.70;;;;;;5095889;28;20528;-76
2022/08/01 08:05:49;;;;;;;6.10;3.38;;;30.00;55.80;;;;;;5113332;28;20074;-77
2022/08/01 08:08:16;;;;;;;4.40;3.22;;;30.10;56.10;;;;;;5095410;28;20024;-81
2022/08/01 08:10:42;;;;;;;5.00;3.47;;;30.20;55.80;;;;;;5095976;28;20478;-81
2022/08/01 08:13:08;;;;;;;6.45;3.60;;;30.10;55.90;;;;;;5095057;28;20031;-80
2022/08/01 08:15:33;;;;;;;5.13;3.80;;;30.10;55.90;;;;;;5113873;28;20024;-84
2022/08/01 08:17:59;;;;;;;6.88;3.50;;;30.00;56.10;;;;;;5096014;28;20048;-81
2022/08/01 08:20:26;;;;;;;7.25;3.70;;;29.70;56.50;;;;;;5113463;28;20381;-78
2022/08/01 08:22:53;;;;;;;10.63;3.75;;;29.50;56.50;;;;;;5113798;28;20036;-76
2022/08/01 08:25:19;;;;;;;6.95;3.50;;;29.50;56.70;;;;;;5113708;28;20035;-82
2022/08/01 08:27:48;;;;;;;4.97;3.60;;;29.50;56.30;;;;;;5113759;28;20016;-75
2022/08/01 08:30:14;;;;;;;6.70;3.60;;;29.50;56.40;;;;;;4385375;28;10000678;-77
2022/08/01 08:32:40;;;;;;;5.35;3.70;;;29.40;56.10;;;;;;5091036;28;20506;-75
2022/08/01 08:35:07;;;;;;;5.68;3.80;;;29.20;56.60;;;;;;5072725;28;20406;-79
2022/08/01 08:37:34;;;;;;;5.38;3.42;;;29.20;56.70;;;;;;5092523;28;20485;-75
2022/08/01 08:39:59;;;;;;;6.95;3.78;;;29.30;56.40;;;;;;5094876;28;20031;-78
2022/08/01 08:42:26;;;;;;;5.55;3.78;;;29.40;56.10;;;;;;5095550;28;20335;-80
2022/08/01 08:44:54;;;;;;;3.95;3.20;;;29.30;56.10;;;;;;5094338;28;20055;-78
2022/08/01 08:47:21;;;;;;;5.30;3.08;;;29.30;56.30;;;;;;5095283;28;20065;-76
2022/08/01 08:49:49;;;;;;;4.72;3.42;;;29.20;55.90;;;;;;5095436;28;20485;-76
2022/08/01 08:52:15;;;;;;;5.28;3.20;;;29.20;55.90;;;;;;5078545;28;20093;-79
2022/08/01 08:54:42;;;;;;;4.95;3.33;;;29.00;55.50;;;;;;5097018;28;20095;-77
2022/08/01 08:57:10;;;;;;;5.47;3.33;;;28.80;55.40;;;;;;5078384;28;20035;-81
2022/08/01 08:59:37;;;;;;;4.57;3.10;;;28.70;55.40;;;;;;5096563;28;20510;-76
2022/08/01 09:02:04;;;;;;;6.15;3.40;;;28.80;55.90;;;;;;5096940;28;20567;-79
2022/08/01 09:04:30;;;;;;;6.65;3.60;;;28.90;55.90;;;;;;5096825;28;20028;-76
2022/08/01 09:06:56;;;;;;;5.22;3.38;;;28.80;56.20;;;;;;5096244;28;20027;-77
2022/08/01 09:09:23;;;;;;;7.65;3.40;;;29.00;56.30;;;;;;5096731;28;20028;-76
2022/08/01 09:11:49;;;;;;;6.38;3.78;;;29.00;56.50;;;;;;5096282;28;20020;-77
2022/08/01 09:14:23;;;;;;;4.90;3.30;;;29.30;56.50;;;;;;5096059;28;20129;-76
2022/08/01 09:17:08;;;;;;;9.13;3.58;;;29.50;56.00;;;;;;5078623;28;20031;-78
2022/08/01 09:19:42;;;;;;;5.88;3.50;;;29.60;56.20;;;;;;5096073;28;20017;-75
2022/08/01 09:22:11;;;;;;;5.20;3.33;;;29.60;55.80;;;;;;5096121;28;20062;-80
2022/08/01 09:24:39;;;;;;;5.95;3.40;;;29.80;55.70;;;;;;5095651;28;20112;-80
2022/08/01 09:27:19;;;;;;;5.80;3.45;;;30.00;56.40;;;;;;5078021;28;20119;-77
2022/08/01 09:29:45;;;;;;;4.30;3.42;;;30.20;56.30;;;;;;5096201;28;20048;-81
2022/08/01 09:32:11;;;;;;;5.60;3.50;;;30.30;55.00;;;;;;5095643;28;20090;-76
2022/08/01 09:34:37;;;;;;;5.82;3.22;;;30.40;56.00;;;;;;5096039;28;20024;-78
2022/08/01 09:37:05;;;;;;;5.55;3.03;;;30.70;55.40;;;;;;5096336;28;20078;-80
2022/08/01 09:39:37;;;;;;;6.28;3.33;;;30.70;54.50;;;;;;5095900;28;20016;-76
2022/08/01 09:42:23;;;;;;;4.78;3.53;;;30.70;54.50;;;;;;5096063;28;20038;-81
2022/08/01 09:44:49;;;;;;;5.13;3.47;;;30.70;54.70;;;;;;5077164;28;20055;-80
2022/08/01 09:47:16;;;;;;;7.38;3.70;;;30.60;54.20;;;;;;5095827;28;20051;-79
2022/08/01 09:49:43;;;;;;;6.25;3.75;;;30.60;54.80;;;;;;5095130;28;20069;-80
2022/08/01 09:52:17;;;;;;;5.10;3.50;;;30.70;55.00;;;;;;5095616;28;20020;-81
2022/08/01 09:54:50;;;;;;;4.75;3.53;;;30.90;54.40;;;;;;5077582;28;20111;-81
2022/08/01 09:57:18;;;;;;;4.82;3.70;;;30.70;53.80;;;;;;5095234;28;20034;-84
2022/08/01 09:59:49;;;;;;;14.07;12.90;;;30.70;54.70;;;;;;5077198;28;20063;-77
2022/08/01 10:02:30;;;;;;;6.18;3.65;;;30.70;54.80;;;;;;5095669;28;20091;-80
2022/08/01 10:04:55;;;;;;;6.45;3.80;;;30.70;53.80;;;;;;5095321;28;20394;-76
2022/08/01 10:07:22;;;;;;;4.85;3.20;;;30.70;53.70;;;;;;5095930;28;20035;-77
2022/08/01 10:09:48;;;;;;;4.95;3.13;;;31.00;53.70;;;;;;5095565;28;20016;-82
2022/08/01 10:12:16;;;;;;;5.22;3.55;;;31.30;53.20;;;;;;5093808;28;20024;-78
2022/08/01 10:14:44;;;;;;;4.80;3.47;;;31.40;52.20;;;;;;5095480;28;20035;-77
2022/08/01 10:17:13;;;;;;;6.35;3.80;;;31.30;52.90;;;;;;5095268;28;20024;-78
2022/08/01 10:19:41;;;;;;;6.40;3.50;;;31.40;52.40;;;;;;5095706;28;20035;-77
2022/08/01 10:22:16;;;;;;;6.72;3.55;;;31.60;52.40;;;;;;5077395;28;20058;-77
2022/08/01 10:24:44;;;;;;;5.72;3.60;;;31.70;52.70;;;;;;5092808;28;20032;-81
2022/08/01 10:27:10;;;;;;;5.13;3.50;;;31.60;52.50;;;;;;5094337;28;20430;-78
2022/08/01 10:29:48;;;;;;;4.57;3.22;;;31.60;53.10;;;;;;5095268;28;20020;-78
2022/08/01 10:32:15;;;;;;;5.18;3.40;;;31.60;52.10;;;;;;5076606;28;20020;-78
2022/08/01 10:34:40;;;;;;;4.93;3.63;;;31.70;53.00;;;;;;5076707;28;20024;-78
2022/08/01 10:37:07;;;;;;;5.03;3.60;;;31.90;52.90;;;;;;5094809;28;20024;-80
2022/08/01 10:39:33;;;;;;;4.85;3.38;;;32.00;52.60;;;;;;5094504;28;20473;-77
2022/08/01 10:42:00;;;;;;;5.90;3.67;;;32.20;52.00;;;;;;5094487;28;20039;-83
2022/08/01 10:44:29;;;;;;;5.20;3.75;;;32.30;53.00;;;;;;5076848;28;20047;-81
2022/08/01 10:47:02;;;;;;;6.40;3.63;;;32.30;51.90;;;;;;5076528;28;20031;-79
2022/08/01 10:49:31;;;;;;;6.15;3.50;;;32.30;51.10;;;;;;5076496;28;20494;-77
2022/08/01 10:51:57;;;;;;;6.27;3.80;;;32.30;51.50;;;;;;5093102;28;20442;-76
2022/08/01 10:54:26;;;;;;;4.82;3.47;;;32.30;51.30;;;;;;5094604;28;20071;-76
2022/08/01 10:56:52;;;;;;;6.00;3.50;;;32.30;51.50;;;;;;5094865;28;20054;-78
2022/08/01 10:59:24;;;;;;;6.30;3.88;;;32.00;52.10;;;;;;5094732;28;20085;-78
2022/08/01 11:02:04;;;;;;;4.85;3.80;;;32.10;52.10;;;;;;5093075;28;20024;-77
2022/08/01 11:04:57;;;;;;;5.88;3.70;;;32.20;52.00;;;;;;5093885;28;20032;-84
2022/08/01 11:07:43;;;;;;;6.35;3.50;;;32.10;51.40;;;;;;5094638;28;20095;-79
2022/08/01 11:10:25;;;;;;;5.15;3.70;;;32.50;51.90;;;;;;5093980;28;20020;-78
2022/08/01 11:12:52;;;;;;;7.85;3.70;;;33.00;51.10;;;;;;5094302;28;20050;-78
2022/08/01 11:15:29;;;;;;;7.85;3.90;;;33.10;50.20;;;;;;5092895;28;20497;-77
2022/08/01 11:17:56;;;;;;;4.70;3.70;;;32.90;51.30;;;;;;5094172;28;20024;-79
2022/08/01 11:20:32;;;;;;;6.57;3.97;;;33.10;51.50;;;;;;5075856;28;20081;-77
2022/08/01 11:23:01;;;;;;;6.85;3.75;;;33.30;50.50;;;;;;5075998;28;20501;-79
2022/08/01 11:25:27;;;;;;;4.90;3.70;;;33.60;51.50;;;;;;5094078;28;20032;-80
2022/08/01 11:28:23;;;;;;;6.65;4.00;;;33.30;51.20;;;;;;5093684;28;20032;-78
2022/08/01 11:31:07;;;;;;;5.72;3.90;;;33.00;51.50;;;;;;5077369;28;20528;-79
2022/08/01 11:33:42;;;;;;;4.55;3.40;;;33.10;51.40;;;;;;5094004;28;20099;-85
2022/08/01 11:36:13;;;;;;;4.75;3.78;;;33.00;51.20;;;;;;5076237;28;20020;-88
2022/08/01 11:39:10;;;;;;;8.57;3.70;;;32.70;51.30;;;;;;5076206;28;20471;-81
2022/08/01 11:41:36;;;;;;;6.53;4.10;;;32.60;51.60;;;;;;5075251;28;20382;-82
2022/08/01 11:44:07;;;;;;;5.03;3.45;;;32.90;51.80;;;;;;5075226;28;20052;-80
2022/08/01 11:46:55;;;;;;;3.80;3.20;;;33.20;52.50;;;;;;5075547;28;20095;-77
2022/08/01 11:49:34;;;;;;;5.25;3.65;;;33.30;51.70;;;;;;5094174;28;20028;-78
2022/08/01 11:52:23;;;;;;;6.95;3.40;;;33.20;49.90;;;;;;5093466;28;20024;-78
2022/08/01 11:55:08;;;;;;;4.68;3.80;;;33.30;50.80;;;;;;5093275;28;20356;-77
2022/08/01 11:57:35;;;;;;;8.75;4.05;;;33.20;51.40;;;;;;5093495;28;20032;-78
2022/08/01 12:00:05;;;;;;;6.28;3.97;;;33.30;51.90;;;;;;5093295;28;20043;-78
2022/08/01 12:02:33;;;;;;;5.30;4.10;;;33.50;51.40;;;;;;5093023;28;20032;-80
2022/08/01 12:05:11;;;;;;;4.78;3.60;;;33.80;49.50;;;;;;5093187;28;20036;-86
2022/08/01 12:07:39;;;;;;;4.25;3.40;;;34.00;51.20;;;;;;5075240;28;20031;-79
2022/08/01 12:10:05;;;;;;;4.43;3.30;;;34.30;48.80;;;;;;5093761;28;20024;-80
2022/08/01 12:12:32;;;;;;;7.53;3.88;;;33.70;49.30;;;;;;5077668;28;20028;-79
2022/08/01 12:15:00;;;;;;;5.40;3.40;;;33.40;48.60;;;;;;5079389;28;20027;-79
2022/08/01 12:17:41;;;;;;;5.88;3.70;;;33.40;49.90;;;;;;5096627;28;20142;-82
2022/08/01 12:20:09;;;;;;;5.70;3.53;;;33.40;48.90;;;;;;5098560;28;20099;-79
2022/08/01 12:22:36;;;;;;;6.22;3.60;;;33.30;49.20;;;;;;5096986;28;20055;-84
2022/08/01 12:25:20;;;;;;;5.80;3.53;;;33.50;50.10;;;;;;5079738;28;20028;-81
2022/08/01 12:27:47;;;;;;;4.22;3.40;;;33.80;48.40;;;;;;5097728;28;20352;-82
2022/08/01 12:30:16;;;;;;;5.32;3.42;;;33.90;48.30;;;;;;5079555;28;20055;-82
2022/08/01 12:32:44;;;;;;;4.57;3.60;;;34.10;49.30;;;;;;5097904;28;20447;-77
2022/08/01 12:35:11;;;;;;;4.43;3.70;;;33.90;48.60;;;;;;5097896;28;20031;-80
2022/08/01 12:37:45;;;;;;;3.70;3.20;;;34.10;48.30;;;;;;5079755;28;20466;-79
2022/08/01 12:40:21;;;;;;;5.63;3.38;;;34.10;47.50;;;;;;5079094;28;20048;-87
2022/08/01 12:42:49;;;;;;;5.93;3.53;;;34.10;48.10;;;;;;5096789;28;20054;-81
2022/08/01 12:45:24;;;;;;;6.35;3.60;;;34.20;48.70;;;;;;5079403;28;20039;-82
2022/08/01 12:47:52;;;;;;;5.38;3.15;;;33.60;48.40;;;;;;5097185;28;20360;-78
2022/08/01 12:50:23;;;;;;;4.72;3.25;;;33.60;49.20;;;;;;5097266;28;20482;-79
2022/08/01 12:52:50;;;;;;;5.18;3.25;;;33.70;49.10;;;;;;5096638;28;20016;-77
2022/08/01 12:55:21;;;;;;;5.13;3.00;;;33.90;46.90;;;;;;5096978;28;20375;-84
2022/08/01 12:57:50;;;;;;;6.88;3.15;;;34.00;47.20;;;;;;5096925;28;20444;-78